createdAt,value
2018-11-10T00:00:17.645Z,38.85
2018-11-10T00:02:47.362Z,37.50
2018-11-10T00:05:16.663Z,38.00
2018-11-10T00:07:45.891Z,36.97
2018-11-10T00:10:14.867Z,37.77
2018-11-10T00:12:43.789Z,36.17
2018-11-10T00:15:13.666Z,36.33
2018-11-10T00:17:42.478Z,37.57
2018-11-10T00:20:11.687Z,36.17
2018-11-10T00:22:41.354Z,36.70
2018-11-10T00:25:11.850Z,35.70
2018-11-10T00:27:41.388Z,37.47
2018-11-10T00:30:12.376Z,36.90
2018-11-10T00:32:42.143Z,36.60
2018-11-10T00:35:10.988Z,37.80
2018-11-10T00:37:39.841Z,35.90
2018-11-10T00:40:10.975Z,35.10
2018-11-10T00:42:39.796Z,33.60
2018-11-10T00:45:09.008Z,36.13
2018-11-10T00:47:38.174Z,36.37
2018-11-10T00:50:09.094Z,36.50
2018-11-10T00:52:38.389Z,36.03
2018-11-10T00:55:08.570Z,38.53
2018-11-10T00:57:37.401Z,34.27
2018-11-10T01:00:10.174Z,36.00
2018-11-10T01:02:38.966Z,35.17
2018-11-10T01:05:07.864Z,35.60
2018-11-10T01:07:36.683Z,35.93
2018-11-10T01:10:06.615Z,33.20
2018-11-10T01:12:35.454Z,32.57
2018-11-10T01:15:05.006Z,36.97
2018-11-10T01:17:33.828Z,36.30
2018-11-10T01:20:02.705Z,36.47
2018-11-10T01:22:31.548Z,33.70
2018-11-10T01:25:00.350Z,34.90
2018-11-10T01:27:29.194Z,36.43
2018-11-10T01:29:58.011Z,34.33
2018-11-10T01:32:26.823Z,37.37
2018-11-10T01:34:56.114Z,37.53
2018-11-10T01:37:25.083Z,36.93
2018-11-10T01:39:54.067Z,36.10
2018-11-10T01:42:22.879Z,41.17
2018-11-10T01:44:51.674Z,37.13
2018-11-10T01:47:20.594Z,35.97
2018-11-10T01:49:49.662Z,36.60
2018-11-10T01:52:18.472Z,37.90
2018-11-10T01:54:47.314Z,33.10
2018-11-10T01:57:16.170Z,36.80
2018-11-10T01:59:45.129Z,35.60
2018-11-10T02:02:14.022Z,36.67
2018-11-10T02:04:42.842Z,36.23
2018-11-10T02:07:11.693Z,39.58
2018-11-10T02:09:40.557Z,37.70
2018-11-10T02:12:09.380Z,38.87
2018-11-10T02:14:44.902Z,38.77
2018-11-10T02:17:13.704Z,39.23
2018-11-10T02:19:42.614Z,38.67
2018-11-10T02:22:11.854Z,38.67
2018-11-10T02:24:40.674Z,36.00
2018-11-10T02:27:14.961Z,33.63
2018-11-10T02:29:43.773Z,37.93
2018-11-10T02:32:12.801Z,37.67
2018-11-10T02:34:41.774Z,37.33
2018-11-10T02:37:11.173Z,36.63
2018-11-10T02:39:39.985Z,36.13
2018-11-10T02:42:08.936Z,36.23
2018-11-10T02:44:37.734Z,36.97
2018-11-10T02:47:06.535Z,36.93
2018-11-10T02:49:35.370Z,38.17
2018-11-10T02:52:04.182Z,34.10
2018-11-10T02:54:33.062Z,33.10
2018-11-10T02:57:01.885Z,33.93
2018-11-10T02:59:30.741Z,35.70
2018-11-10T03:01:59.609Z,36.63
2018-11-10T03:04:35.226Z,35.70
2018-11-10T03:07:04.034Z,35.73
2018-11-10T03:09:32.854Z,34.27
2018-11-10T03:12:01.708Z,35.30
2018-11-10T03:14:30.535Z,36.67
2018-11-10T03:16:59.350Z,33.50
2018-11-10T03:19:28.310Z,33.90
2018-11-10T03:21:57.151Z,33.43
2018-11-10T03:24:25.953Z,35.87
2018-11-10T03:26:55.034Z,32.27
2018-11-10T03:29:23.847Z,32.17
2018-11-10T03:31:52.677Z,31.70
2018-11-10T03:34:21.506Z,35.47
2018-11-10T03:36:50.322Z,33.60
2018-11-10T03:39:19.503Z,34.70
2018-11-10T03:41:48.349Z,34.93
2018-11-10T03:44:17.160Z,32.40
2018-11-10T03:46:46.011Z,32.37
2018-11-10T03:49:14.954Z,32.73
2018-11-10T03:51:43.745Z,31.77
2018-11-10T03:54:12.534Z,31.23
2018-11-10T03:56:41.365Z,32.30
2018-11-10T03:59:10.195Z,30.77
2018-11-10T04:01:39.095Z,32.65
2018-11-10T04:04:07.985Z,31.77
2018-11-10T04:06:36.814Z,30.77
2018-11-10T04:09:06.929Z,32.00
2018-11-10T04:11:36.301Z,28.67
2018-11-10T04:14:05.482Z,29.87
2018-11-10T04:16:34.287Z,29.87
2018-11-10T04:19:03.104Z,28.20
2018-11-10T04:21:31.935Z,28.97
2018-11-10T04:24:00.744Z,25.60
2018-11-10T04:26:29.570Z,29.33
2018-11-10T04:28:58.395Z,29.37
2018-11-10T04:31:27.254Z,30.60
2018-11-10T04:33:56.182Z,27.50
2018-11-10T04:36:25.037Z,26.33
2018-11-10T04:38:53.862Z,28.57
2018-11-10T04:41:23.116Z,31.77
2018-11-10T04:43:51.926Z,29.40
2018-11-10T04:46:20.742Z,29.93
2018-11-10T04:48:49.559Z,30.03
2018-11-10T04:51:18.363Z,27.67
2018-11-10T04:53:47.218Z,28.50
2018-11-10T04:56:16.532Z,26.47
2018-11-10T04:58:45.350Z,26.77
2018-11-10T05:01:14.186Z,26.47
2018-11-10T05:03:42.990Z,29.23
2018-11-10T05:06:11.795Z,27.90
2018-11-10T05:08:40.597Z,26.67
2018-11-10T05:11:09.418Z,27.63
2018-11-10T05:13:38.239Z,26.43
2018-11-10T05:16:07.047Z,26.87
2018-11-10T05:18:35.968Z,25.93
2018-11-10T05:21:04.787Z,27.37
2018-11-10T05:23:33.598Z,27.53
2018-11-10T05:26:02.517Z,25.10
2018-11-10T05:28:31.378Z,26.63
2018-11-10T05:31:00.225Z,27.50
2018-11-10T05:33:28.998Z,27.60
2018-11-10T05:35:57.806Z,26.10
2018-11-10T05:38:26.608Z,27.53
2018-11-10T05:40:55.642Z,26.57
2018-11-10T05:43:24.908Z,26.47
2018-11-10T05:45:53.812Z,28.00
2018-11-10T05:48:22.740Z,27.10
2018-11-10T05:50:51.539Z,25.97
2018-11-10T05:53:20.338Z,26.70
2018-11-10T05:55:49.178Z,27.00
2018-11-10T05:58:17.983Z,25.87
2018-11-10T06:00:46.797Z,24.40
2018-11-10T06:03:15.944Z,25.40
2018-11-10T06:05:44.728Z,27.47
2018-11-10T06:08:13.535Z,26.43
2018-11-10T06:10:42.375Z,26.80
2018-11-10T06:13:11.191Z,25.67
2018-11-10T06:15:40.026Z,25.70
2018-11-10T06:18:08.863Z,27.17
2018-11-10T06:20:37.709Z,25.07
2018-11-10T06:23:06.497Z,24.83
2018-11-10T06:25:35.581Z,25.80
2018-11-10T06:28:04.567Z,27.17
2018-11-10T06:30:33.405Z,25.57
2018-11-10T06:33:02.319Z,25.13
2018-11-10T06:35:31.134Z,26.23
2018-11-10T06:37:59.993Z,25.87
2018-11-10T06:40:28.773Z,26.30
2018-11-10T06:42:57.570Z,25.73
2018-11-10T06:45:26.959Z,25.20
2018-11-10T06:47:56.015Z,24.03
2018-11-10T06:50:24.818Z,25.70
2018-11-10T06:52:53.662Z,25.83
2018-11-10T06:55:22.466Z,25.53
2018-11-10T06:57:51.267Z,24.63
2018-11-10T07:00:20.085Z,24.57
2018-11-10T07:02:49.485Z,25.90
2018-11-10T07:05:18.345Z,24.30
2018-11-10T07:07:47.527Z,25.50
2018-11-10T07:10:16.543Z,26.80
2018-11-10T07:12:45.355Z,25.77
2018-11-10T07:15:14.170Z,25.00
2018-11-10T07:17:43.027Z,25.70
2018-11-10T07:20:11.799Z,25.77
2018-11-10T07:22:40.625Z,26.57
2018-11-10T07:25:09.888Z,25.57
2018-11-10T07:27:38.659Z,25.87
2018-11-10T07:30:11.461Z,27.47
2018-11-10T07:32:40.658Z,27.30
2018-11-10T07:35:10.476Z,26.83
2018-11-10T07:37:39.338Z,28.73
2018-11-10T07:40:11.079Z,29.18
2018-11-10T07:42:39.865Z,27.73
2018-11-10T07:45:10.577Z,27.10
2018-11-10T07:47:39.801Z,28.63
2018-11-10T07:50:09.564Z,28.07
2018-11-10T07:52:39.124Z,26.13
2018-11-10T07:55:09.994Z,27.32
2018-11-10T07:57:38.843Z,28.20
2018-11-10T08:00:12.177Z,27.93
2018-11-10T08:02:41.282Z,27.20
2018-11-10T08:05:10.788Z,28.90
2018-11-10T08:07:40.622Z,28.03
2018-11-10T08:10:09.995Z,25.93
2018-11-10T08:12:38.807Z,26.77
2018-11-10T08:15:12.583Z,29.35
2018-11-10T08:17:41.614Z,27.00
2018-11-10T08:20:10.892Z,30.77
2018-11-10T08:22:39.805Z,26.60
2018-11-10T08:25:11.217Z,28.17
2018-11-10T08:27:40.255Z,27.47
2018-11-10T08:30:11.086Z,29.57
2018-11-10T08:32:40.201Z,30.30
2018-11-10T08:35:10.445Z,28.90
2018-11-10T08:37:39.272Z,28.63
2018-11-10T08:40:15.335Z,28.27
2018-11-10T08:42:44.217Z,28.80
2018-11-10T08:45:14.038Z,31.82
2018-11-10T08:47:44.155Z,31.40
2018-11-10T08:50:14.175Z,28.98
2018-11-10T08:52:43.414Z,28.60
2018-11-10T08:55:13.079Z,28.97
2018-11-10T08:57:42.356Z,30.30
2018-11-10T09:00:11.911Z,31.07
2018-11-10T09:02:40.754Z,28.70
2018-11-10T09:05:11.199Z,30.57
2018-11-10T09:07:40.290Z,30.57
2018-11-10T09:10:10.996Z,29.43
2018-11-10T09:12:39.816Z,30.77
2018-11-10T09:15:11.465Z,30.20
2018-11-10T09:17:40.615Z,31.10
2018-11-10T09:20:11.718Z,30.70
2018-11-10T09:22:40.562Z,31.27
2018-11-10T09:25:11.375Z,33.07
2018-11-10T09:27:40.286Z,33.00
2018-11-10T09:30:10.917Z,31.37
2018-11-10T09:32:40.578Z,30.50
2018-11-10T09:35:10.701Z,33.10
2018-11-10T09:37:39.499Z,30.77
2018-11-10T09:40:11.962Z,31.87
2018-11-10T09:42:41.162Z,29.70
2018-11-10T09:45:12.128Z,30.80
2018-11-10T09:47:41.300Z,31.10
2018-11-10T09:50:15.818Z,31.07
2018-11-10T09:52:45.073Z,30.03
2018-11-10T09:55:14.723Z,31.07
2018-11-10T09:57:43.590Z,31.80
2018-11-10T10:00:15.290Z,32.00
2018-11-10T10:02:44.634Z,31.83
2018-11-10T10:05:13.486Z,30.37
2018-11-10T10:07:43.389Z,30.57
2018-11-10T10:10:17.166Z,32.33
2018-11-10T10:12:46.130Z,32.10
2018-11-10T10:15:16.190Z,32.17
2018-11-10T10:17:45.502Z,31.07
2018-11-10T10:20:18.509Z,32.97
2018-11-10T10:22:48.084Z,31.17
2018-11-10T10:25:17.511Z,31.57
2018-11-10T10:27:47.747Z,33.37
2018-11-10T10:30:18.579Z,31.25
2018-11-10T10:32:48.163Z,31.07
2018-11-10T10:35:17.140Z,30.52
2018-11-10T10:37:46.859Z,31.80
2018-11-10T10:40:16.289Z,32.73
2018-11-10T10:42:45.665Z,29.50
2018-11-10T10:45:16.109Z,31.00
2018-11-10T10:47:45.323Z,33.70
2018-11-10T10:50:16.684Z,33.00
2018-11-10T10:52:45.521Z,30.73
2018-11-10T10:55:15.373Z,30.90
2018-11-10T10:57:45.269Z,30.77
2018-11-10T11:00:19.617Z,30.80
2018-11-10T11:02:54.008Z,31.60
2018-11-10T11:05:28.335Z,30.03
2018-11-10T11:07:57.149Z,32.33
2018-11-10T11:10:25.971Z,31.10
2018-11-10T11:12:54.822Z,28.80
2018-11-10T11:15:26.984Z,28.67
2018-11-10T11:17:55.735Z,28.73
2018-11-10T11:20:24.538Z,32.13
2018-11-10T11:22:53.375Z,29.67
2018-11-10T11:25:22.322Z,31.73
2018-11-10T11:27:51.132Z,31.00
2018-11-10T11:30:19.949Z,31.03
2018-11-10T11:32:48.780Z,29.80
2018-11-10T11:35:17.696Z,30.00
2018-11-10T11:37:46.458Z,28.47
2018-11-10T11:40:15.460Z,29.67
2018-11-10T11:42:44.577Z,32.00
2018-11-10T11:45:13.866Z,29.50
2018-11-10T11:47:43.359Z,30.87
2018-11-10T11:50:13.372Z,27.70
2018-11-10T11:52:43.322Z,29.93
2018-11-10T11:55:12.807Z,30.63
2018-11-10T11:57:41.852Z,29.53
2018-11-10T12:00:13.778Z,29.13
2018-11-10T12:02:43.149Z,28.77
2018-11-10T12:05:13.482Z,26.67
2018-11-10T12:07:45.442Z,28.43
2018-11-10T12:10:15.278Z,27.93
2018-11-10T12:12:44.109Z,28.97
2018-11-10T12:15:14.190Z,28.37
2018-11-10T12:17:42.979Z,27.53
2018-11-10T12:20:13.094Z,25.97
2018-11-10T12:22:42.267Z,27.67
2018-11-10T12:25:12.089Z,26.83
2018-11-10T12:27:41.989Z,26.73
2018-11-10T12:30:11.200Z,26.30
2018-11-10T12:32:40.498Z,25.87
2018-11-10T12:35:10.791Z,27.77
2018-11-10T12:37:39.714Z,25.37
2018-11-10T12:40:10.806Z,26.60
2018-11-10T12:42:40.193Z,24.27
2018-11-10T12:45:10.786Z,25.23
2018-11-10T12:47:40.269Z,25.87
2018-11-10T12:50:11.208Z,27.20
2018-11-10T12:52:40.848Z,26.47
2018-11-10T12:55:11.541Z,25.77
2018-11-10T12:57:41.422Z,26.50
2018-11-10T13:00:11.717Z,25.23
2018-11-10T13:02:40.542Z,27.10
2018-11-10T13:05:10.329Z,26.47
2018-11-10T13:07:39.511Z,28.30
2018-11-10T13:10:09.536Z,25.68
2018-11-10T13:12:38.554Z,25.00
2018-11-10T13:15:08.874Z,27.07
2018-11-10T13:17:38.170Z,25.10
2018-11-10T13:20:10.816Z,26.80
2018-11-10T13:22:39.642Z,24.87
2018-11-10T13:25:10.399Z,24.10
2018-11-10T13:27:39.394Z,27.97
2018-11-10T13:30:11.073Z,25.75
2018-11-10T13:32:39.945Z,24.30
2018-11-10T13:35:09.916Z,25.65
2018-11-10T13:37:41.818Z,25.37
2018-11-10T13:40:10.963Z,26.93
2018-11-10T13:42:39.808Z,26.23
2018-11-10T13:45:11.103Z,27.10
2018-11-10T13:47:40.030Z,25.93
2018-11-10T13:50:11.670Z,25.12
2018-11-10T13:52:43.021Z,26.60
2018-11-10T13:55:14.053Z,27.40
2018-11-10T13:57:43.754Z,24.93
2018-11-10T14:00:15.930Z,24.60
2018-11-10T14:02:49.067Z,26.10
2018-11-10T14:05:19.886Z,24.20
2018-11-10T14:07:50.095Z,24.37
2018-11-10T14:10:19.758Z,25.40
2018-11-10T14:12:50.306Z,25.00
2018-11-10T14:15:19.603Z,25.87
2018-11-10T14:17:49.328Z,24.77
2018-11-10T14:20:19.606Z,23.87
2018-11-10T14:22:48.472Z,26.03
2018-11-10T14:25:17.837Z,25.47
2018-11-10T14:27:46.943Z,25.67
2018-11-10T14:30:17.146Z,24.23
2018-11-10T14:32:46.397Z,24.00
2018-11-10T14:35:15.563Z,24.77
2018-11-10T14:37:44.366Z,26.63
2018-11-10T14:40:14.666Z,25.43
2018-11-10T14:42:44.084Z,23.03
2018-11-10T14:45:15.150Z,22.70
2018-11-10T14:47:44.401Z,25.23
2018-11-10T14:50:14.136Z,23.63
2018-11-10T14:52:43.167Z,22.57
2018-11-10T14:55:13.025Z,25.00
2018-11-10T14:57:42.131Z,24.97
2018-11-10T15:00:14.798Z,23.73
2018-11-10T15:02:43.723Z,25.57
2018-11-10T15:05:13.290Z,33.53
2018-11-10T15:07:48.843Z,25.00
2018-11-10T15:10:18.374Z,25.73
2018-11-10T15:12:47.442Z,30.20
2018-11-10T15:15:17.277Z,24.77
2018-11-10T15:17:46.384Z,24.17
2018-11-10T15:20:16.372Z,23.43
2018-11-10T15:22:51.918Z,23.57
2018-11-10T15:25:21.605Z,24.30
2018-11-10T15:27:50.339Z,24.73
2018-11-10T15:30:20.447Z,23.23
2018-11-10T15:32:49.738Z,23.47
2018-11-10T15:35:20.015Z,23.97
2018-11-10T15:37:50.016Z,23.23
2018-11-10T15:40:19.384Z,22.07
2018-11-10T15:42:48.298Z,24.90
2018-11-10T15:45:18.607Z,22.77
2018-11-10T15:47:48.317Z,25.73
2018-11-10T15:50:18.134Z,24.27
2018-11-10T15:52:47.008Z,24.37
2018-11-10T15:55:16.523Z,24.35
2018-11-10T15:57:45.361Z,25.00
2018-11-10T16:00:15.766Z,23.83
2018-11-10T16:02:44.574Z,25.03
2018-11-10T16:05:14.165Z,27.07
2018-11-10T16:07:43.249Z,27.57
2018-11-10T16:10:12.372Z,27.67
2018-11-10T16:12:41.189Z,28.67
2018-11-10T16:15:13.468Z,27.43
2018-11-10T16:17:42.569Z,25.47
2018-11-10T16:20:14.134Z,28.77
2018-11-10T16:22:44.018Z,26.77
2018-11-10T16:25:12.852Z,26.50
2018-11-10T16:27:41.943Z,26.00
2018-11-10T16:30:12.969Z,25.40
2018-11-10T16:32:41.777Z,29.20
2018-11-10T16:35:10.691Z,27.57
2018-11-10T16:37:39.630Z,27.77
2018-11-10T16:40:12.154Z,26.52
2018-11-10T16:42:41.720Z,28.87
2018-11-10T16:45:11.810Z,27.07
2018-11-10T16:47:40.899Z,27.13
2018-11-10T16:50:10.239Z,27.47
2018-11-10T16:52:39.430Z,29.40
2018-11-10T16:55:09.020Z,27.70
2018-11-10T16:57:38.762Z,28.60
2018-11-10T17:00:11.056Z,28.25
2018-11-10T17:02:39.851Z,27.23
2018-11-10T17:05:08.910Z,26.33
2018-11-10T17:07:38.235Z,28.03
2018-11-10T17:10:11.711Z,27.45
2018-11-10T17:12:40.964Z,26.77
2018-11-10T17:15:10.219Z,28.63
2018-11-10T17:17:39.409Z,29.57
2018-11-10T17:20:11.949Z,30.95
2018-11-10T17:22:41.050Z,28.23
2018-11-10T17:25:10.485Z,28.73
2018-11-10T17:27:40.738Z,29.53
2018-11-10T17:30:12.747Z,31.53
2018-11-10T17:32:41.756Z,31.70
2018-11-10T17:35:11.262Z,32.20
2018-11-10T17:37:40.167Z,31.83
2018-11-10T17:40:10.103Z,31.63
2018-11-10T17:42:38.939Z,31.07
2018-11-10T17:45:11.458Z,31.40
2018-11-10T17:47:40.334Z,30.73
2018-11-10T17:50:10.257Z,31.00
2018-11-10T17:52:39.483Z,31.47
2018-11-10T17:55:10.263Z,37.00
2018-11-10T17:57:40.659Z,33.87
2018-11-10T18:00:09.475Z,32.33
2018-11-10T18:02:38.280Z,33.60
2018-11-10T18:05:11.795Z,34.63
2018-11-10T18:07:40.629Z,33.43
2018-11-10T18:10:11.722Z,33.30
2018-11-10T18:12:40.820Z,32.53
2018-11-10T18:15:10.423Z,32.17
2018-11-10T18:17:39.778Z,30.90
2018-11-10T18:20:10.651Z,31.50
2018-11-10T18:22:39.467Z,31.47
2018-11-10T18:25:08.909Z,32.93
2018-11-10T18:27:38.150Z,31.30
2018-11-10T18:30:11.118Z,33.45
2018-11-10T18:32:40.013Z,32.53
2018-11-10T18:35:09.625Z,33.97
2018-11-10T18:37:38.438Z,33.40
2018-11-10T18:40:08.689Z,34.55
2018-11-10T18:42:37.482Z,34.13
2018-11-10T18:45:09.756Z,32.83
2018-11-10T18:47:39.008Z,33.00
2018-11-10T18:50:11.591Z,33.70
2018-11-10T18:52:40.407Z,32.17
2018-11-10T18:55:09.232Z,31.67
2018-11-10T18:57:38.287Z,32.53
2018-11-10T19:00:11.971Z,31.25
2018-11-10T19:02:41.362Z,33.47
2018-11-10T19:05:11.592Z,32.43
2018-11-10T19:07:40.486Z,32.43
2018-11-10T19:10:11.266Z,33.33
2018-11-10T19:12:40.313Z,31.57
2018-11-10T19:15:13.727Z,34.83
2018-11-10T19:17:42.550Z,35.20
2018-11-10T19:20:12.013Z,34.43
2018-11-10T19:22:41.614Z,33.33
2018-11-10T19:25:11.727Z,33.53
2018-11-10T19:27:40.531Z,32.77
2018-11-10T19:30:13.038Z,31.97
2018-11-10T19:32:41.990Z,32.23
2018-11-10T19:35:11.495Z,31.90
2018-11-10T19:37:40.297Z,34.20
2018-11-10T19:40:09.898Z,35.73
2018-11-10T19:42:39.103Z,33.10
2018-11-10T19:45:09.840Z,33.35
2018-11-10T19:47:39.410Z,36.40
2018-11-10T19:50:09.215Z,36.05
2018-11-10T19:52:37.963Z,34.13
2018-11-10T19:55:11.648Z,33.05
2018-11-10T19:57:40.476Z,33.93
2018-11-10T20:00:16.587Z,35.77
2018-11-10T20:02:45.882Z,33.20
2018-11-10T20:05:14.758Z,34.87
2018-11-10T20:07:43.622Z,33.93
2018-11-10T20:10:12.874Z,32.80
2018-11-10T20:12:42.211Z,35.60
2018-11-10T20:15:12.589Z,33.17
2018-11-10T20:17:41.898Z,33.23
2018-11-10T20:20:11.928Z,31.07
2018-11-10T20:22:41.301Z,33.90
2018-11-10T20:25:12.146Z,35.60
2018-11-10T20:27:41.249Z,34.03
2018-11-10T20:30:14.035Z,33.47
2018-11-10T20:32:42.926Z,33.83
2018-11-10T20:35:12.523Z,35.27
2018-11-10T20:37:42.357Z,35.17
2018-11-10T20:40:12.255Z,33.00
2018-11-10T20:42:41.347Z,35.00
2018-11-10T20:45:13.827Z,33.03
2018-11-10T20:47:42.913Z,35.83
2018-11-10T20:50:12.341Z,38.77
2018-11-10T20:52:41.178Z,35.70
2018-11-10T20:55:10.914Z,34.27
2018-11-10T20:57:39.727Z,34.60
2018-11-10T21:00:12.875Z,34.20
2018-11-10T21:02:42.801Z,34.30
2018-11-10T21:05:12.424Z,34.87
2018-11-10T21:07:41.722Z,35.80
2018-11-10T21:10:13.990Z,34.37
2018-11-10T21:12:43.547Z,35.67
2018-11-10T21:15:12.845Z,34.80
2018-11-10T21:17:41.666Z,36.43
2018-11-10T21:20:11.473Z,37.43
2018-11-10T21:22:40.278Z,35.90
2018-11-10T21:25:11.071Z,37.47
2018-11-10T21:27:40.738Z,37.90
2018-11-10T21:30:11.449Z,35.13
2018-11-10T21:32:40.175Z,36.67
2018-11-10T21:35:09.419Z,36.13
2018-11-10T21:37:38.617Z,34.30
2018-11-10T21:40:13.515Z,35.43
2018-11-10T21:42:42.578Z,32.87
2018-11-10T21:45:12.501Z,34.40
2018-11-10T21:47:41.794Z,35.50
2018-11-10T21:50:12.584Z,36.77
2018-11-10T21:52:42.153Z,36.60
2018-11-10T21:55:12.579Z,35.10
2018-11-10T21:57:42.079Z,35.80
2018-11-10T22:00:13.054Z,37.07
2018-11-10T22:02:42.950Z,35.37
2018-11-10T22:05:11.922Z,34.90
2018-11-10T22:07:41.150Z,37.17
2018-11-10T22:10:12.510Z,36.60
2018-11-10T22:12:41.659Z,36.17
2018-11-10T22:15:12.851Z,36.10
2018-11-10T22:17:42.614Z,34.60
2018-11-10T22:20:13.054Z,35.73
2018-11-10T22:22:41.955Z,36.00
2018-11-10T22:25:11.547Z,35.83
2018-11-10T22:27:42.082Z,33.93
2018-11-10T22:30:15.092Z,35.70
2018-11-10T22:32:44.583Z,38.07
2018-11-10T22:35:13.423Z,34.15
2018-11-10T22:37:42.226Z,37.17
2018-11-10T22:40:12.986Z,35.63
2018-11-10T22:42:42.182Z,37.40
2018-11-10T22:45:13.736Z,36.50
2018-11-10T22:47:43.161Z,34.50
2018-11-10T22:50:14.587Z,36.53
2018-11-10T22:52:43.692Z,36.27
2018-11-10T22:55:12.518Z,37.63
2018-11-10T22:57:41.565Z,35.00
2018-11-10T23:00:21.222Z,36.03
2018-11-10T23:02:51.754Z,37.43
2018-11-10T23:05:21.149Z,37.37
2018-11-10T23:07:50.194Z,39.00
2018-11-10T23:10:19.339Z,37.78
2018-11-10T23:12:49.152Z,36.27
2018-11-10T23:15:18.026Z,36.10
2018-11-10T23:17:47.506Z,38.63
2018-11-10T23:20:17.738Z,36.50
2018-11-10T23:22:46.614Z,35.87
2018-11-10T23:25:16.782Z,33.30
2018-11-10T23:27:45.674Z,38.33
2018-11-10T23:30:17.743Z,39.27
2018-11-10T23:32:46.552Z,36.10
2018-11-10T23:35:15.362Z,36.27
2018-11-10T23:37:44.218Z,36.03
2018-11-10T23:40:14.330Z,35.15
2018-11-10T23:42:43.514Z,34.70
2018-11-10T23:45:13.131Z,35.83
2018-11-10T23:47:41.959Z,35.47
2018-11-10T23:50:12.690Z,33.73
2018-11-10T23:52:41.935Z,37.10
2018-11-10T23:55:11.786Z,35.10
2018-11-10T23:57:40.615Z,36.23
